Time;durP1;ratioP1;P1;durP2;ratioP2;P2;SDS_P1;SDS_P2;PMS_P1;PMS_P2;Temp;Humidity;BMP_temperature;BMP_pressure;BME280_temperature;BME280_humidity;BME280_pressure;Samples;Min_cycle;Max_cycle;Signal;HPM_P1;HPM_P2
2024/04/04 00:01:08;;;;;;;1.80;0.93;;;12.40;1.00;;;;;;5011834;28;20442;-72
2024/04/04 00:03:34;;;;;;;3.23;1.03;;;12.40;1.00;;;;;;5012060;28;20508;-71
2024/04/04 00:06:00;;;;;;;5.93;1.03;;;12.40;1.20;;;;;;5011591;28;20425;-71
2024/04/04 00:08:25;;;;;;;5.10;1.33;;;12.40;1.20;;;;;;5011637;28;20423;-71
2024/04/04 00:10:52;;;;;;;2.00;0.97;;;12.40;1.10;;;;;;5010302;28;20181;-71
2024/04/04 00:13:17;;;;;;;4.03;0.97;;;12.40;1.20;;;;;;5011469;28;20193;-71
2024/04/04 00:15:43;;;;;;;1.93;0.60;;;12.40;1.20;;;;;;5011531;28;20471;-71
2024/04/04 00:18:08;;;;;;;2.20;1.10;;;12.40;1.40;;;;;;5010555;28;20177;-71
2024/04/04 00:20:38;;;;;;;3.03;1.20;;;12.40;1.30;;;;;;5011197;28;20227;-71
2024/04/04 00:23:04;;;;;;;2.03;0.70;;;12.30;1.70;;;;;;5011431;28;20495;-71
2024/04/04 00:25:30;;;;;;;2.20;1.03;;;12.30;2.30;;;;;;5011506;28;20493;-71
2024/04/04 00:27:56;;;;;;;2.37;0.80;;;12.20;2.50;;;;;;5011408;28;20204;-71
2024/04/04 00:30:21;;;;;;;3.83;0.90;;;12.10;2.60;;;;;;5011220;28;20974;-71
2024/04/04 00:32:47;;;;;;;4.37;0.80;;;12.10;3.20;;;;;;5010945;28;20292;-70
2024/04/04 00:35:12;;;;;;;1.87;0.90;;;12.10;2.90;;;;;;5011340;28;20212;-70
2024/04/04 00:37:38;;;;;;;1.97;0.87;;;12.20;2.60;;;;;;5011762;28;20205;-71
2024/04/04 00:40:05;;;;;;;3.80;1.03;;;12.20;2.90;;;;;;5011309;28;20703;-71
2024/04/04 00:42:31;;;;;;;4.10;1.30;;;12.30;2.30;;;;;;5011082;28;20188;-70
2024/04/04 00:44:56;;;;;;;1.97;0.77;;;12.30;2.30;;;;;;5011217;28;20426;-72
2024/04/04 00:47:22;;;;;;;1.80;0.80;;;12.30;2.30;;;;;;5009743;28;20183;-71
2024/04/04 00:49:47;;;;;;;1.60;0.67;;;12.30;2.30;;;;;;5011563;28;20180;-71
2024/04/04 00:52:13;;;;;;;1.80;0.67;;;12.30;2.30;;;;;;5014741;28;20183;-71
2024/04/04 00:54:42;;;;;;;2.30;0.77;;;12.30;2.30;;;;;;5014623;28;20253;-70
2024/04/04 00:57:08;;;;;;;1.70;0.80;;;12.30;2.30;;;;;;5015101;28;20172;-71
2024/04/04 00:59:34;;;;;;;2.83;1.00;;;12.30;2.30;;;;;;5014467;28;20572;-71
2024/04/04 01:02:00;;;;;;;2.23;0.80;;;12.30;2.30;;;;;;5014375;28;20418;-71
2024/04/04 01:04:25;;;;;;;5.40;0.80;;;12.30;2.30;;;;;;5014370;28;21006;-70
2024/04/04 01:06:51;;;;;;;2.60;0.70;;;12.30;2.30;;;;;;5014629;28;20187;-69
2024/04/04 01:09:17;;;;;;;4.67;1.37;;;12.30;2.90;;;;;;5014382;28;20183;-71
2024/04/04 01:11:42;;;;;;;3.10;1.23;;;12.30;2.60;;;;;;5014386;28;20191;-71
2024/04/04 01:14:08;;;;;;;3.40;0.97;;;12.20;2.20;;;;;;5014247;28;20197;-70
2024/04/04 01:16:34;;;;;;;4.70;1.20;;;12.30;2.30;;;;;;5014214;28;20212;-70
2024/04/04 01:19:00;;;;;;;4.17;1.37;;;12.30;2.30;;;;;;5014442;28;20480;-70
2024/04/04 01:21:25;;;;;;;2.33;1.10;;;12.30;2.30;;;;;;5014386;28;20171;-71
2024/04/04 01:23:51;;;;;;;1.50;0.50;;;12.30;2.40;;;;;;5013829;28;20215;-71
2024/04/04 01:26:17;;;;;;;1.97;0.70;;;12.30;2.30;;;;;;5014105;28;20185;-71
2024/04/04 01:28:44;;;;;;;2.43;0.70;;;12.20;2.20;;;;;;5013961;28;20482;-72
2024/04/04 01:31:10;;;;;;;1.70;0.70;;;12.10;2.50;;;;;;5014128;28;20547;-71
2024/04/04 01:33:36;;;;;;;2.27;0.60;;;11.90;3.90;;;;;;5013918;28;20440;-69
2024/04/04 01:36:01;;;;;;;3.93;0.97;;;11.80;5.00;;;;;;5013458;28;20454;-69
2024/04/04 01:38:27;;;;;;;1.70;0.73;;;11.70;6.20;;;;;;5012621;28;20237;-69
2024/04/04 01:40:53;;;;;;;5.33;1.33;;;11.60;6.30;;;;;;5013571;28;20556;-69
2024/04/04 01:43:19;;;;;;;3.20;1.10;;;11.60;6.80;;;;;;5013520;28;20212;-69
2024/04/04 01:45:45;;;;;;;5.30;0.90;;;11.60;6.10;;;;;;5012306;28;20429;-69
2024/04/04 01:48:10;;;;;;;3.30;0.70;;;11.70;6.40;;;;;;5013545;28;20189;-69
2024/04/04 01:50:36;;;;;;;2.20;0.70;;;11.70;6.00;;;;;;5013307;28;20180;-68
2024/04/04 01:53:02;;;;;;;2.77;0.70;;;11.80;4.60;;;;;;5013562;28;20204;-69
2024/04/04 01:55:29;;;;;;;2.53;0.90;;;11.80;4.10;;;;;;5012928;28;20207;-69
2024/04/04 01:57:58;;;;;;;1.60;0.60;;;11.90;3.40;;;;;;5013547;28;20415;-69
2024/04/04 02:00:24;;;;;;;2.53;0.80;;;11.90;3.20;;;;;;5013089;28;20407;-69
2024/04/04 02:02:49;;;;;;;1.90;0.80;;;12.00;2.70;;;;;;5012897;28;20477;-69
2024/04/04 02:05:15;;;;;;;2.27;0.77;;;11.90;2.70;;;;;;5013335;28;20830;-70
2024/04/04 02:07:40;;;;;;;2.80;1.00;;;11.90;2.50;;;;;;5013190;28;20302;-69
2024/04/04 02:10:06;;;;;;;2.40;0.80;;;12.00;2.10;;;;;;5013153;28;20271;-69
2024/04/04 02:12:32;;;;;;;3.30;1.13;;;12.00;2.00;;;;;;5013106;28;20188;-70
2024/04/04 02:14:57;;;;;;;4.80;1.63;;;12.00;2.10;;;;;;5011807;28;20290;-70
2024/04/04 02:17:23;;;;;;;1.70;0.77;;;12.00;2.10;;;;;;5013209;28;20212;-69
2024/04/04 02:19:49;;;;;;;1.80;1.03;;;12.00;2.00;;;;;;5012948;28;20515;-69
2024/04/04 02:22:15;;;;;;;2.43;0.60;;;12.00;1.70;;;;;;5012996;28;20265;-70
2024/04/04 02:24:41;;;;;;;3.70;1.13;;;12.00;1.70;;;;;;5012815;28;20882;-69
2024/04/04 02:27:07;;;;;;;1.60;0.73;;;12.10;1.30;;;;;;5012866;28;20952;-69
2024/04/04 02:29:32;;;;;;;1.63;0.53;;;12.10;1.30;;;;;;5012880;28;20411;-68
2024/04/04 02:31:58;;;;;;;2.00;0.73;;;12.10;1.00;;;;;;5013030;28;20617;-69
2024/04/04 02:34:23;;;;;;;3.00;1.00;;;12.10;1.10;;;;;;5012476;28;20683;-69
2024/04/04 02:36:49;;;;;;;1.90;0.80;;;12.10;1.00;;;;;;5012596;28;20186;-69
2024/04/04 02:39:14;;;;;;;6.50;1.37;;;12.10;1.00;;;;;;5011339;28;20184;-69
2024/04/04 02:41:40;;;;;;;1.90;0.70;;;12.10;1.00;;;;;;5011928;28;20231;-69
2024/04/04 02:44:06;;;;;;;1.70;0.70;;;12.10;1.00;;;;;;5012639;28;20211;-69
2024/04/04 02:46:32;;;;;;;2.03;0.70;;;12.10;1.00;;;;;;5012638;28;20432;-69
2024/04/04 02:48:58;;;;;;;2.90;0.83;;;12.10;1.00;;;;;;5012577;28;20440;-70
2024/04/04 02:51:23;;;;;;;1.70;0.60;;;12.10;1.00;;;;;;5012471;28;20418;-69
2024/04/04 02:53:49;;;;;;;2.40;0.73;;;12.10;1.00;;;;;;5012268;28;20298;-69
2024/04/04 02:56:14;;;;;;;2.00;0.63;;;12.00;1.00;;;;;;5012337;28;20575;-70
2024/04/04 02:58:40;;;;;;;1.80;0.70;;;12.00;1.00;;;;;;5012233;28;20179;-69
2024/04/04 03:01:06;;;;;;;2.07;0.70;;;12.00;1.00;;;;;;5012339;28;20184;-69
2024/04/04 03:03:31;;;;;;;1.80;0.50;;;12.00;1.00;;;;;;5012755;28;20557;-69
2024/04/04 03:05:57;;;;;;;1.70;0.70;;;12.00;1.00;;;;;;5012252;28;20666;-70
2024/04/04 03:08:22;;;;;;;1.60;0.60;;;12.00;1.00;;;;;;5012119;28;20909;-69
2024/04/04 03:10:48;;;;;;;2.07;0.77;;;12.00;1.00;;;;;;5011862;28;20196;-68
2024/04/04 03:13:13;;;;;;;3.63;0.60;;;12.00;1.00;;;;;;5011420;28;20218;-68
2024/04/04 03:15:39;;;;;;;1.70;0.50;;;12.10;1.00;;;;;;5012080;28;20282;-69
2024/04/04 03:18:05;;;;;;;2.27;0.90;;;12.20;1.00;;;;;;5012630;28;20527;-69
2024/04/04 03:20:30;;;;;;;2.10;0.70;;;12.20;1.00;;;;;;5011854;28;20172;-71
2024/04/04 03:22:58;;;;;;;2.17;0.70;;;12.20;1.00;;;;;;5011938;28;20205;-70
2024/04/04 03:25:26;;;;;;;2.00;0.83;;;12.20;1.00;;;;;;5012221;28;20561;-69
2024/04/04 03:27:51;;;;;;;3.87;0.60;;;12.10;1.00;;;;;;5011910;28;20422;-69
2024/04/04 03:30:17;;;;;;;1.30;0.40;;;12.10;1.00;;;;;;5012067;28;20411;-69
2024/04/04 03:32:43;;;;;;;1.70;0.70;;;12.10;1.00;;;;;;5011860;28;20709;-69
2024/04/04 03:35:09;;;;;;;1.63;0.77;;;12.10;1.00;;;;;;5011827;28;20468;-69
2024/04/04 03:37:34;;;;;;;1.60;0.57;;;12.00;1.00;;;;;;5011559;28;20183;-69
2024/04/04 03:40:00;;;;;;;3.20;1.10;;;11.80;1.00;;;;;;5011647;28;20263;-69
2024/04/04 03:42:26;;;;;;;1.80;0.60;;;11.70;1.00;;;;;;5011714;28;20200;-69
2024/04/04 03:44:53;;;;;;;2.13;0.60;;;11.60;1.80;;;;;;5012086;28;20427;-69
2024/04/04 03:47:18;;;;;;;3.23;0.90;;;11.50;1.70;;;;;;5010604;28;20791;-70
2024/04/04 03:49:44;;;;;;;3.07;0.70;;;11.40;2.20;;;;;;5011422;28;20422;-69
2024/04/04 03:52:10;;;;;;;2.07;0.80;;;11.30;3.10;;;;;;5011742;28;20594;-70
2024/04/04 03:54:36;;;;;;;1.83;0.70;;;11.30;3.50;;;;;;5011669;28;20199;-70
2024/04/04 03:57:01;;;;;;;1.87;0.70;;;11.20;3.70;;;;;;5011815;28;20437;-70
2024/04/04 03:59:27;;;;;;;2.20;0.60;;;11.20;3.60;;;;;;5011531;28;20524;-70
2024/04/04 04:01:53;;;;;;;1.60;0.50;;;11.30;2.70;;;;;;5011590;28;20187;-70
2024/04/04 04:04:19;;;;;;;1.80;0.67;;;11.30;3.20;;;;;;5011472;28;20196;-70
2024/04/04 04:06:44;;;;;;;2.80;0.70;;;11.20;3.20;;;;;;5011455;28;20434;-70
2024/04/04 04:09:11;;;;;;;1.80;0.70;;;11.10;4.00;;;;;;5011712;28;20902;-69
2024/04/04 04:11:36;;;;;;;3.00;0.60;;;11.10;4.10;;;;;;5011769;28;20176;-69
2024/04/04 04:14:03;;;;;;;2.13;0.90;;;11.00;4.50;;;;;;5011735;28;20445;-69
2024/04/04 04:16:28;;;;;;;2.17;0.80;;;11.00;4.90;;;;;;5011445;28;20203;-69
2024/04/04 04:18:54;;;;;;;3.93;0.80;;;10.90;5.30;;;;;;5011283;28;20431;-70
2024/04/04 04:21:20;;;;;;;1.90;0.90;;;10.90;5.80;;;;;;5011527;28;20529;-70
2024/04/04 04:23:50;;;;;;;3.13;1.00;;;10.90;5.80;;;;;;5012142;28;20199;-71
2024/04/04 04:26:16;;;;;;;2.00;0.60;;;10.90;5.90;;;;;;5015387;28;20410;-70
2024/04/04 04:28:42;;;;;;;1.90;1.00;;;10.90;5.80;;;;;;5015059;28;20422;-69
2024/04/04 04:31:27;;;;;;;4.93;0.87;;;10.80;5.80;;;;;;5014685;28;20426;-70
2024/04/04 04:33:54;;;;;;;4.80;0.87;;;10.90;6.30;;;;;;5015135;28;20536;-70
2024/04/04 04:36:23;;;;;;;1.80;0.60;;;10.90;5.80;;;;;;5016063;28;20462;-70
2024/04/04 04:38:48;;;;;;;2.53;0.73;;;10.90;5.80;;;;;;5014799;28;20419;-69
2024/04/04 04:41:14;;;;;;;3.10;0.93;;;11.00;5.40;;;;;;5015225;28;20469;-70
2024/04/04 04:43:42;;;;;;;4.03;1.10;;;11.30;4.00;;;;;;5014767;28;20254;-69
2024/04/04 04:46:08;;;;;;;3.57;0.83;;;11.30;3.70;;;;;;5013537;28;20633;-69
2024/04/04 04:48:34;;;;;;;2.27;0.90;;;11.20;3.90;;;;;;5013305;28;20945;-70
2024/04/04 04:50:59;;;;;;;4.33;1.30;;;11.30;3.30;;;;;;5013897;28;20481;-70
2024/04/04 04:53:25;;;;;;;1.87;0.70;;;11.40;2.80;;;;;;5014591;28;20282;-70
2024/04/04 04:55:51;;;;;;;2.73;1.10;;;11.40;2.50;;;;;;5014504;28;20215;-73
2024/04/04 04:58:19;;;;;;;3.97;1.57;;;11.30;2.60;;;;;;5014999;28;20271;-72
2024/04/04 05:00:45;;;;;;;1.70;1.00;;;11.40;1.70;;;;;;5015001;28;20867;-72
2024/04/04 05:03:10;;;;;;;7.33;1.00;;;11.50;1.70;;;;;;5013470;28;20880;-71
2024/04/04 05:05:36;;;;;;;3.13;1.20;;;11.50;1.70;;;;;;5014691;28;20429;-69
2024/04/04 05:08:02;;;;;;;4.40;1.30;;;11.40;1.60;;;;;;5014363;28;20541;-70
2024/04/04 05:10:29;;;;;;;3.00;1.07;;;11.50;1.70;;;;;;5013929;28;20193;-70
2024/04/04 05:12:55;;;;;;;5.07;1.10;;;11.50;1.10;;;;;;5014061;28;20207;-70
2024/04/04 05:15:21;;;;;;;3.43;1.83;;;11.60;1.00;;;;;;5013969;28;20966;-70
2024/04/04 05:17:47;;;;;;;3.70;1.27;;;11.60;1.00;;;;;;5014363;28;20178;-70
2024/04/04 05:20:13;;;;;;;1.93;0.70;;;11.60;1.00;;;;;;5014135;28;20415;-69
2024/04/04 05:22:43;;;;;;;6.20;1.47;;;11.60;1.00;;;;;;5014096;28;20216;-71
2024/04/04 05:25:15;;;;;;;5.73;1.60;;;11.60;1.00;;;;;;5014023;28;20477;-71
2024/04/04 05:27:41;;;;;;;2.07;1.00;;;11.60;1.00;;;;;;5013929;28;20458;-71
2024/04/04 05:30:10;;;;;;;5.73;1.50;;;11.70;1.00;;;;;;5012700;28;20431;-71
2024/04/04 05:32:37;;;;;;;3.40;2.60;;;11.80;1.00;;;;;;5014028;28;20421;-75
2024/04/04 05:35:04;;;;;;;3.83;1.57;;;11.80;1.00;;;;;;5013762;28;20465;-70
2024/04/04 05:37:29;;;;;;;2.73;1.63;;;12.00;1.00;;;;;;5013360;28;20415;-71
2024/04/04 05:39:55;;;;;;;3.67;1.53;;;12.20;1.00;;;;;;5013726;28;20427;-70
2024/04/04 05:42:20;;;;;;;4.30;1.53;;;12.40;1.00;;;;;;5013659;28;20571;-70
2024/04/04 05:44:46;;;;;;;2.90;1.20;;;12.90;1.00;;;;;;5014154;28;20182;-71
2024/04/04 05:47:11;;;;;;;2.20;1.47;;;13.80;1.00;;;;;;5013724;28;20199;-71
2024/04/04 05:49:37;;;;;;;3.87;1.70;;;13.90;1.00;;;;;;5013258;28;20241;-70
2024/04/04 05:52:03;;;;;;;7.33;1.93;;;14.30;1.00;;;;;;5013318;28;20265;-71
2024/04/04 05:54:29;;;;;;;4.63;1.80;;;;;;;;;;5013420;28;20211;-70
2024/04/04 05:56:55;;;;;;;2.83;1.13;;;;;;;;;;5011972;28;20960;-71
2024/04/04 05:59:21;;;;;;;7.70;2.40;;;16.20;19.20;;;;;;5013169;28;20434;-71
2024/04/04 06:01:47;;;;;;;4.97;1.50;;;17.30;1.00;;;;;;5013251;28;20422;-71
2024/04/04 06:04:12;;;;;;;2.53;1.80;;;18.00;1.00;;;;;;5011360;28;20310;-70
2024/04/04 06:06:38;;;;;;;2.77;1.50;;;18.40;1.00;;;;;;5013284;28;20233;-70
2024/04/04 06:09:04;;;;;;;5.57;1.33;;;;;;;;;;5012667;28;20176;-71
2024/04/04 06:11:30;;;;;;;2.67;1.60;;;;;;;;;;5013074;28;20681;-71
2024/04/04 06:13:55;;;;;;;5.63;1.90;;;17.70;1.00;;;;;;5012984;28;20848;-71
2024/04/04 06:16:21;;;;;;;3.67;2.27;;;18.10;1.00;;;;;;5012742;28;21007;-68
2024/04/04 06:18:46;;;;;;;3.00;1.40;;;19.20;1.00;;;;;;5011839;28;20195;-69
2024/04/04 06:21:12;;;;;;;2.97;1.93;;;18.50;1.00;;;;;;5013163;28;20238;-71
2024/04/04 06:23:38;;;;;;;3.97;2.07;;;;;;;;;;5012403;28;20491;-70
2024/04/04 06:26:04;;;;;;;4.30;1.90;;;21.50;1.00;;;;;;5013023;28;20644;-69
2024/04/04 06:28:30;;;;;;;3.70;2.83;;;;;;;;;;5012644;28;20962;-69
2024/04/04 06:30:56;;;;;;;3.93;2.43;;;;;;;;;;5010851;28;20519;-70
2024/04/04 06:33:21;;;;;;;3.63;2.40;;;21.10;1.00;;;;;;5012869;28;20488;-70
2024/04/04 06:35:46;;;;;;;3.17;2.40;;;20.60;1.00;;;;;;5012518;28;20481;-71
2024/04/04 06:38:12;;;;;;;2.40;2.10;;;;;;;;;;5012565;28;20541;-70
2024/04/04 06:40:41;;;;;;;5.70;2.40;;;22.70;1.00;;;;;;5012512;28;20172;-70
2024/04/04 06:43:07;;;;;;;4.07;2.37;;;23.30;1.00;;;;;;5012024;28;20477;-72
2024/04/04 06:45:32;;;;;;;3.40;2.47;;;22.70;1.00;;;;;;5012766;28;20418;-70
2024/04/04 06:47:58;;;;;;;3.80;2.33;;;;;;;;;;5012599;28;20289;-71
2024/04/04 06:50:28;;;;;;;3.40;2.03;;;22.00;1.00;;;;;;5012948;28;20188;-72
2024/04/04 06:52:54;;;;;;;2.93;1.90;;;20.80;1.00;;;;;;5011150;28;20969;-71
2024/04/04 06:55:20;;;;;;;3.13;2.10;;;20.60;1.00;;;;;;5012380;28;20492;-68
2024/04/04 06:57:46;;;;;;;3.23;2.10;;;21.50;1.00;;;;;;5012612;28;20501;-69
2024/04/04 07:00:12;;;;;;;3.07;2.07;;;21.10;1.00;;;;;;5012180;28;20270;-69
2024/04/04 07:02:38;;;;;;;2.53;1.80;;;21.50;1.00;;;;;;5012412;28;20545;-69
2024/04/04 07:05:08;;;;;;;6.57;2.53;;;22.10;1.00;;;;;;5006879;28;20196;-69
2024/04/04 07:07:34;;;;;;;2.83;1.90;;;21.60;1.00;;;;;;5008288;28;20430;-68
2024/04/04 07:10:01;;;;;;;6.43;2.20;;;20.30;1.00;;;;;;5008168;28;20426;-70
2024/04/04 07:12:27;;;;;;;4.17;2.10;;;20.90;1.00;;;;;;5009703;28;20184;-70
2024/04/04 07:14:52;;;;;;;2.90;1.53;;;20.60;1.00;;;;;;5012201;28;20492;-69
2024/04/04 07:17:19;;;;;;;11.33;2.70;;;20.20;1.00;;;;;;5012754;28;20563;-69
2024/04/04 07:19:44;;;;;;;4.30;2.33;;;21.10;1.00;;;;;;5011884;28;20502;-69
2024/04/04 07:22:10;;;;;;;5.40;2.10;;;19.80;1.00;;;;;;5011833;28;20587;-68
2024/04/04 07:24:36;;;;;;;2.07;1.50;;;19.00;1.00;;;;;;5012598;28;20203;-69
2024/04/04 07:27:01;;;;;;;2.80;1.73;;;18.90;1.00;;;;;;5013162;28;20258;-69
2024/04/04 07:29:27;;;;;;;5.60;2.73;;;18.30;1.00;;;;;;5012269;28;20184;-69
2024/04/04 07:31:52;;;;;;;5.00;1.83;;;17.80;1.00;;;;;;5012180;28;20211;-70
2024/04/04 07:34:18;;;;;;;5.23;1.77;;;17.40;1.00;;;;;;5012106;28;20200;-69
2024/04/04 07:36:43;;;;;;;4.30;1.77;;;17.30;1.00;;;;;;5011962;28;20276;-69
2024/04/04 07:39:09;;;;;;;3.57;1.83;;;17.00;1.00;;;;;;5011770;28;20192;-69
2024/04/04 07:41:36;;;;;;;5.70;1.87;;;16.40;1.00;;;;;;5012194;28;20636;-69
2024/04/04 07:44:02;;;;;;;6.03;2.60;;;16.40;1.00;;;;;;5011788;28;20958;-69
2024/04/04 07:46:28;;;;;;;2.00;1.30;;;16.30;1.00;;;;;;5011720;28;20458;-69
2024/04/04 07:48:54;;;;;;;3.40;1.53;;;15.90;1.00;;;;;;5012214;28;20180;-69
2024/04/04 07:51:21;;;;;;;5.50;1.50;;;15.90;1.00;;;;;;5011965;28;20419;-69
2024/04/04 07:53:48;;;;;;;7.67;2.43;;;16.00;1.00;;;;;;5011772;28;20454;-70
2024/04/04 07:56:16;;;;;;;4.33;1.50;;;16.00;1.00;;;;;;5011962;28;20478;-70
2024/04/04 07:58:43;;;;;;;3.00;1.53;;;16.50;1.00;;;;;;5011799;28;20434;-68
2024/04/04 08:01:09;;;;;;;3.03;1.57;;;17.10;1.00;;;;;;5015994;28;20909;-69
2024/04/04 08:03:35;;;;;;;3.00;1.73;;;18.00;1.00;;;;;;5015625;28;20435;-69
2024/04/04 08:06:00;;;;;;;2.93;1.40;;;17.80;1.00;;;;;;5015792;28;20196;-68
2024/04/04 08:08:26;;;;;;;2.30;1.83;;;17.70;1.00;;;;;;5015682;28;20942;-69
2024/04/04 08:10:51;;;;;;;2.07;1.60;;;17.80;1.00;;;;;;5015264;28;20187;-69
2024/04/04 08:13:17;;;;;;;3.43;1.47;;;17.70;1.00;;;;;;5015311;28;20206;-68
2024/04/04 08:15:43;;;;;;;3.90;1.87;;;17.20;1.00;;;;;;5015385;28;20207;-68
2024/04/04 08:18:08;;;;;;;4.27;1.60;;;16.90;1.00;;;;;;5015472;28;20213;-68
2024/04/04 08:20:34;;;;;;;3.23;1.70;;;16.70;1.00;;;;;;5015282;28;20168;-68
2024/04/04 08:23:00;;;;;;;7.10;1.47;;;16.40;1.00;;;;;;5015239;28;20198;-69
2024/04/04 08:25:28;;;;;;;2.17;1.30;;;16.50;1.00;;;;;;5015543;28;20541;-68
2024/04/04 08:27:53;;;;;;;6.77;1.40;;;16.30;1.00;;;;;;5015214;28;21021;-68
2024/04/04 08:30:19;;;;;;;5.73;1.20;;;16.30;1.00;;;;;;5015315;28;20411;-68
2024/04/04 08:32:45;;;;;;;2.90;1.43;;;16.10;1.00;;;;;;5014980;28;20192;-68
2024/04/04 08:35:11;;;;;;;3.40;1.33;;;16.00;1.00;;;;;;5014781;28;20524;-68
2024/04/04 08:37:36;;;;;;;3.40;1.30;;;16.10;1.00;;;;;;5014930;28;20171;-68
2024/04/04 08:40:03;;;;;;;7.63;1.70;;;16.40;1.00;;;;;;5014606;28;20613;-68
2024/04/04 08:42:29;;;;;;;2.90;1.63;;;16.40;1.00;;;;;;5014636;28;20172;-69
2024/04/04 08:44:56;;;;;;;8.73;1.80;;;16.30;1.00;;;;;;5014850;28;20561;-69
2024/04/04 08:47:23;;;;;;;3.67;1.97;;;16.20;1.00;;;;;;5014670;28;20176;-68
2024/04/04 08:49:50;;;;;;;3.67;3.30;;;16.20;1.00;;;;;;5014365;28;20407;-69
2024/04/04 08:52:16;;;;;;;3.83;3.30;;;16.10;1.00;;;;;;5014616;28;20420;-68
2024/04/04 08:54:42;;;;;;;3.53;2.20;;;16.10;1.00;;;;;;5014409;28;20945;-68
2024/04/04 08:57:08;;;;;;;4.73;2.13;;;16.30;1.00;;;;;;5014647;28;20168;-68
2024/04/04 08:59:34;;;;;;;3.47;1.40;;;16.20;1.00;;;;;;5014322;28;20407;-68
2024/04/04 09:02:01;;;;;;;4.67;1.57;;;16.10;1.00;;;;;;5014392;28;21008;-68
2024/04/04 09:04:30;;;;;;;1.90;1.30;;;15.80;1.00;;;;;;5014352;28;20431;-68
2024/04/04 09:06:56;;;;;;;3.00;1.63;;;16.10;1.00;;;;;;5012791;28;20458;-68
2024/04/04 09:09:23;;;;;;;2.40;1.13;;;16.30;1.00;;;;;;5014259;28;20512;-69
2024/04/04 09:11:49;;;;;;;4.93;1.60;;;16.60;1.00;;;;;;5013223;28;20426;-68
2024/04/04 09:14:15;;;;;;;2.70;1.60;;;16.60;1.00;;;;;;5012896;28;20443;-68
2024/04/04 09:16:42;;;;;;;2.37;1.60;;;16.80;1.00;;;;;;5012849;28;20474;-68
2024/04/04 09:19:18;;;;;;;2.63;1.20;;;17.00;1.00;;;;;;5013994;28;20425;-69
2024/04/04 09:21:44;;;;;;;2.00;1.27;;;17.00;1.00;;;;;;5014302;28;20441;-68
2024/04/04 09:24:13;;;;;;;2.77;1.37;;;16.60;1.00;;;;;;5014142;28;20423;-68
2024/04/04 09:26:39;;;;;;;2.70;1.47;;;16.50;1.00;;;;;;5014302;28;20423;-69
2024/04/04 09:29:05;;;;;;;2.20;1.20;;;16.50;1.00;;;;;;5014261;28;20961;-68
2024/04/04 09:31:37;;;;;;;3.33;1.43;;;16.40;1.00;;;;;;5029271;28;20473;-67
2024/04/04 09:34:03;;;;;;;7.03;1.60;;;16.40;1.00;;;;;;5014087;28;20812;-68
2024/04/04 09:36:30;;;;;;;8.07;2.27;;;16.40;1.00;;;;;;5013686;28;20497;-68
2024/04/04 09:38:57;;;;;;;4.10;1.93;;;16.70;1.00;;;;;;5013694;28;20482;-68
2024/04/04 09:41:23;;;;;;;2.40;1.20;;;17.10;1.00;;;;;;5014086;28;20411;-68
2024/04/04 09:43:50;;;;;;;3.33;1.50;;;17.20;1.00;;;;;;5013871;28;20795;-69
2024/04/04 09:46:19;;;;;;;6.50;1.70;;;17.40;1.00;;;;;;5013612;28;20509;-67
2024/04/04 09:48:46;;;;;;;6.80;1.73;;;17.50;1.00;;;;;;5013554;28;20443;-68
2024/04/04 09:51:12;;;;;;;3.63;1.43;;;17.50;1.00;;;;;;5013776;28;20423;-67
2024/04/04 09:53:39;;;;;;;6.07;2.00;;;17.50;1.00;;;;;;5013744;28;20526;-67
2024/04/04 09:56:06;;;;;;;1.77;1.27;;;17.40;1.00;;;;;;5013426;28;20820;-68
2024/04/04 09:58:35;;;;;;;2.20;1.50;;;17.40;1.00;;;;;;5013339;28;20506;-68
2024/04/04 10:01:19;;;;;;;2.67;1.60;;;17.20;1.00;;;;;;5013146;28;20411;-68
2024/04/04 10:03:54;;;;;;;3.10;1.40;;;17.70;1.00;;;;;;5013634;28;20446;-68
2024/04/04 10:06:36;;;;;;;5.37;1.77;;;18.20;1.00;;;;;;5013255;28;20521;-68
2024/04/04 10:09:21;;;;;;;4.20;1.80;;;18.60;1.00;;;;;;5012893;28;20421;-68
2024/04/04 10:11:47;;;;;;;2.77;1.90;;;19.20;1.00;;;;;;5013280;28;20438;-68
2024/04/04 10:14:19;;;;;;;2.20;1.73;;;19.10;1.00;;;;;;5013099;28;20430;-68
2024/04/04 10:16:47;;;;;;;4.20;1.60;;;19.20;1.00;;;;;;5012979;28;20458;-68
2024/04/04 10:19:14;;;;;;;2.40;1.80;;;18.70;1.00;;;;;;5011556;28;20418;-68
2024/04/04 10:21:40;;;;;;;5.10;2.20;;;18.30;1.00;;;;;;5012668;28;20447;-68
2024/04/04 10:24:11;;;;;;;2.90;1.73;;;18.10;1.00;;;;;;5013010;28;20477;-68
2024/04/04 10:26:37;;;;;;;4.20;1.90;;;17.80;1.00;;;;;;5013057;28;20176;-68
2024/04/04 10:29:03;;;;;;;4.00;1.90;;;17.80;1.00;;;;;;5012762;28;20419;-68
2024/04/04 10:31:29;;;;;;;3.10;1.87;;;17.70;1.00;;;;;;5012949;28;20546;-69
2024/04/04 10:34:03;;;;;;;3.93;2.27;;;17.50;1.00;;;;;;5013038;28;20465;-68
2024/04/04 10:36:39;;;;;;;2.40;1.97;;;17.40;1.00;;;;;;5012795;28;20463;-69
2024/04/04 10:39:17;;;;;;;2.83;1.83;;;17.20;1.00;;;;;;5012755;28;20514;-68
2024/04/04 10:41:45;;;;;;;4.00;1.70;;;17.10;1.00;;;;;;5013029;28;20914;-68
2024/04/04 10:44:16;;;;;;;5.00;1.57;;;17.00;1.00;;;;;;5013294;28;20581;-68
2024/04/04 10:46:47;;;;;;;2.60;1.60;;;16.90;1.00;;;;;;5012835;28;20419;-68
2024/04/04 10:49:14;;;;;;;8.67;2.27;;;16.80;1.00;;;;;;5012292;28;20419;-68
2024/04/04 10:51:45;;;;;;;3.70;1.70;;;16.70;1.00;;;;;;5012539;28;20411;-68
2024/04/04 10:54:11;;;;;;;2.70;2.07;;;16.60;1.00;;;;;;5012569;28;21065;-68
2024/04/04 10:56:37;;;;;;;2.97;1.40;;;16.70;1.00;;;;;;5012497;28;20450;-68
2024/04/04 10:59:03;;;;;;;5.10;1.73;;;16.70;1.00;;;;;;5012200;28;20703;-68
2024/04/04 11:01:29;;;;;;;5.40;1.87;;;16.70;1.00;;;;;;5012300;28;20423;-68
2024/04/04 11:03:55;;;;;;;3.23;1.27;;;16.60;1.00;;;;;;5012479;28;20810;-69
2024/04/04 11:06:21;;;;;;;2.60;1.60;;;16.50;1.00;;;;;;5012595;28;20372;-69
2024/04/04 11:08:49;;;;;;;2.93;1.80;;;16.60;1.00;;;;;;5012101;28;20415;-68
2024/04/04 11:11:16;;;;;;;3.30;1.63;;;17.00;1.00;;;;;;5012407;28;20179;-69
2024/04/04 11:13:42;;;;;;;3.00;1.80;;;17.30;1.00;;;;;;5012170;28;20435;-69
2024/04/04 11:16:12;;;;;;;4.33;2.40;;;17.60;1.00;;;;;;5012216;28;20462;-69
2024/04/04 11:18:38;;;;;;;5.13;1.90;;;18.30;1.00;;;;;;5012012;28;20422;-69
2024/04/04 11:21:05;;;;;;;2.30;1.67;;;18.30;1.00;;;;;;5012199;28;20470;-69
2024/04/04 11:23:31;;;;;;;3.30;1.77;;;18.30;1.00;;;;;;5011913;28;20427;-69
2024/04/04 11:25:57;;;;;;;2.70;1.80;;;18.30;1.00;;;;;;5011915;28;20839;-69
2024/04/04 11:28:22;;;;;;;9.83;2.33;;;18.70;1.00;;;;;;5011745;28;20517;-68
2024/04/04 11:30:48;;;;;;;3.00;1.50;;;18.50;1.00;;;;;;5011784;28;20249;-68
2024/04/04 11:33:14;;;;;;;2.73;1.50;;;18.40;1.00;;;;;;5011681;28;20267;-69
2024/04/04 11:35:39;;;;;;;5.37;2.23;;;18.30;1.00;;;;;;5011425;28;20675;-69
2024/04/04 11:38:05;;;;;;;3.07;1.80;;;18.60;1.00;;;;;;5011994;28;20262;-69
2024/04/04 11:40:30;;;;;;;2.37;1.43;;;18.60;1.00;;;;;;5011648;28;20200;-69
2024/04/04 11:42:56;;;;;;;5.40;1.97;;;18.60;1.00;;;;;;5011435;28;20212;-69
2024/04/04 11:45:22;;;;;;;6.60;2.30;;;18.70;1.00;;;;;;5011899;28;20226;-69
2024/04/04 11:47:47;;;;;;;7.40;2.00;;;19.20;1.00;;;;;;5011859;28;20203;-69
2024/04/04 11:50:13;;;;;;;4.17;1.77;;;19.20;1.00;;;;;;5011495;28;20176;-69
2024/04/04 11:52:39;;;;;;;2.97;1.73;;;19.70;1.00;;;;;;5011538;28;20286;-69
2024/04/04 11:55:07;;;;;;;2.63;1.87;;;19.60;1.00;;;;;;5011605;28;20943;-69
2024/04/04 11:57:32;;;;;;;3.00;1.33;;;19.50;1.00;;;;;;5011632;28;20172;-69
2024/04/04 11:59:58;;;;;;;2.20;1.43;;;19.40;1.00;;;;;;5011431;28;20471;-69
2024/04/04 12:02:23;;;;;;;2.20;1.30;;;19.00;1.00;;;;;;5011450;28;20259;-69
2024/04/04 12:04:49;;;;;;;2.00;1.37;;;18.70;1.00;;;;;;5011594;28;20215;-69
2024/04/04 12:07:14;;;;;;;3.80;1.63;;;18.50;1.00;;;;;;5011692;28;20210;-69
2024/04/04 12:09:40;;;;;;;4.87;1.70;;;18.30;1.00;;;;;;5011340;28;20187;-69
2024/04/04 12:12:06;;;;;;;3.20;1.70;;;17.80;1.00;;;;;;5011490;28;20410;-68
2024/04/04 12:14:32;;;;;;;4.50;1.30;;;16.70;1.00;;;;;;5011675;28;20195;-68
2024/04/04 12:17:00;;;;;;;3.00;1.00;;;16.20;1.00;;;;;;5011452;28;20199;-68
2024/04/04 12:19:26;;;;;;;3.07;1.53;;;15.80;1.00;;;;;;5011364;28;20227;-68
2024/04/04 12:21:52;;;;;;;5.47;2.23;;;15.50;4.50;;;;;;5011766;28;20842;-69
2024/04/04 12:24:18;;;;;;;4.37;1.57;;;15.20;7.20;;;;;;5010206;28;20200;-69
2024/04/04 12:26:45;;;;;;;4.87;1.93;;;15.00;10.00;;;;;;5011452;28;20434;-68
2024/04/04 12:29:11;;;;;;;4.57;1.70;;;14.90;9.70;;;;;;5011453;28;20419;-69
2024/04/04 12:31:38;;;;;;;5.93;1.70;;;14.80;10.70;;;;;;5011583;28;20906;-69
2024/04/04 12:34:04;;;;;;;5.30;1.87;;;14.80;13.00;;;;;;5011434;28;20466;-68
2024/04/04 12:36:31;;;;;;;2.47;1.40;;;14.70;12.90;;;;;;5011310;28;20501;-68
2024/04/04 12:38:57;;;;;;;5.20;1.70;;;14.70;13.40;;;;;;5011062;28;20176;-68
2024/04/04 12:41:22;;;;;;;2.73;1.43;;;15.00;14.20;;;;;;5011268;28;20493;-68
2024/04/04 12:43:48;;;;;;;2.43;1.53;;;15.40;10.10;;;;;;5011074;28;20298;-68
2024/04/04 12:46:14;;;;;;;3.30;1.37;;;15.80;3.20;;;;;;5013630;28;20172;-69
2024/04/04 12:48:41;;;;;;;6.80;1.40;;;15.80;1.00;;;;;;5014616;28;20168;-69
2024/04/04 12:51:07;;;;;;;2.83;1.27;;;15.50;1.00;;;;;;5014802;28;20415;-69
2024/04/04 12:53:33;;;;;;;5.57;2.17;;;15.30;1.30;;;;;;5014618;28;20438;-68
2024/04/04 12:55:59;;;;;;;3.93;1.80;;;15.50;2.00;;;;;;5014877;28;20572;-69